Ros — SYQJ — position and weather

sailwx.info

Track history (hours):
 
Tides and Currents Weather Stations Pressure Air Temp Water Temp Dewpoint Dewpoint Depression Visibility Wind Speed Wind Dir Waves Ship Positions

Ros

Last reported at 2017-Sep-22 02:00 UTC. Time now 2017-Sep-23 02:24 UTC.
Position N 37°57' E 023°38'.

Length 182 m; draft 11.9 m.

Type: Tanker. MMSI: 231741000.

Date/timePositionNaut miles runAvg speedWind from/ knotsBaromVisibWave heightAir tempDewpointWater temp
2017-Sep-22 02:00N 37°57' E 023°38'0 0.0
2017-Sep-22 01:30N 37°57' E 023°38'0 0.0
2017-Sep-22 01:00N 37°57' E 023°38'2 4.7
2017-Sep-22 00:30N 37°54' E 023°38'919.0
2017-Sep-22 00:00N 37°46' E 023°43'918.7
2017-Sep-21 23:30N 37°39' E 023°52'4219.1
2017-Sep-21 21:18N 37°31' E 024°44'620.0
2017-Sep-21 21:00N 37°31' E 024°51'1020.0
2017-Sep-21 20:30N 37°31' E 025°04'1020.4
2017-Sep-21 20:00N 37°31' E 025°17'1020.1
2017-Sep-21 19:30N 37°30' E 025°29'1020.4
2017-Sep-21 19:00N 37°28' E 025°42'1020.4
2017-Sep-21 18:30N 37°25' E 025°54'1 0.1
2017-Sep-21 03:50N 37°24' E 025°55'719.7
2017-Sep-21 03:30N 37°26' E 025°47'1019.9
2017-Sep-21 03:00N 37°29' E 025°35'1020.6
2017-Sep-21 02:30N 37°31' E 025°22'1020.1
2017-Sep-21 02:00N 37°31' E 025°10'1020.8
2017-Sep-21 01:30N 37°31' E 024°57'1020.3
2017-Sep-21 01:00N 37°32' E 024°44'3720.5
2017-Sep-20 23:14N 37°35' E 023°58'520.8
2017-Sep-20 23:00N 37°37' E 023°52'1019.8
2017-Sep-20 22:30N 37°42' E 023°42'1020.5
2017-Sep-20 22:00N 37°51' E 023°37'510.2
2017-Sep-20 21:30N 37°57' E 023°38'0 0.0
2017-Sep-20 21:00N 37°57' E 023°38'4 7.8
2017-Sep-20 20:31N 37°53' E 023°38'1019.7
2017-Sep-20 20:00N 37°44' E 023°44'1018.9
2017-Sep-20 19:30N 37°38' E 023°54'1619.1
2017-Sep-20 18:39N 37°32' E 024°13'2519.1
2017-Sep-20 17:21N 37°31' E 024°44'819.7
2017-Sep-20 16:58N 37°32' E 024°53'919.7
2017-Sep-20 16:30N 37°31' E 025°05'1020.1
2017-Sep-20 16:00N 37°31' E 025°17'1020.1
2017-Sep-20 15:30N 37°30' E 025°30'1420.5
2017-Sep-20 14:49N 37°26' E 025°47'146 8.4
2017-Sep-19 21:24N 39°48' E 025°05'4 9.6
2017-Sep-19 20:56N 39°52' E 025°03'5 9.7
2017-Sep-19 20:23N 39°56' E 024°59'1020.9
2017-Sep-19 19:55N 40°05' E 024°53'920.9
2017-Sep-19 19:29N 40°13' E 024°47'1020.8
2017-Sep-19 19:00N 40°22' E 024°41'1020.7
2017-Sep-19 18:30N 40°31' E 024°34'1020.1
2017-Sep-19 18:00N 40°40' E 024°29'1020.2
2017-Sep-19 17:30N 40°50' E 024°26'612.5
2017-Sep-19 17:00N 40°56' E 024°25'0 0.0
2017-Sep-19 16:30N 40°56' E 024°25'0 0.0
2017-Sep-19 16:00N 40°56' E 024°25'1 1.4
2017-Sep-19 15:31N 40°55' E 024°24'1020.3
2017-Sep-19 15:01N 40°45' E 024°27'1020.7
2017-Sep-19 14:30N 40°36' E 024°31'1020.5
2017-Sep-19 14:00N 40°27' E 024°38'1020.1
2017-Sep-19 13:31N 40°18' E 024°44'1020.0
2017-Sep-19 13:00N 40°09' E 024°51'1019.8
2017-Sep-19 12:30N 40°00' E 024°57'918.7
2017-Sep-19 12:00N 39°52' E 025°03'3 5.8
2017-Sep-19 11:31N 39°50' E 025°02'3620.7
2017-Sep-19 09:47N 39°34' E 025°44'620.3
2017-Sep-19 09:30N 39°32' E 025°51'1120.4
2017-Sep-19 08:58N 39°27' E 026°04'124 8.6
2017-Sep-18 18:33N 37°24' E 025°55'119.4
2017-Sep-18 18:30N 37°24' E 025°54'1019.8
2017-Sep-18 18:00N 37°27' E 025°42'1020.2
2017-Sep-18 17:30N 37°30' E 025°30'918.9
2017-Sep-18 17:00N 37°29' E 025°18'3 6.2
2017-Sep-18 16:30N 37°27' E 025°15'1020.5
2017-Sep-18 16:00N 37°27' E 025°02'4 8.7
2017-Sep-18 15:30N 37°26' E 024°57'2 4.4
2017-Sep-18 15:00N 37°28' E 024°58'918.1
2017-Sep-18 14:30N 37°31' E 024°47'2820.3
2017-Sep-18 13:09N 37°32' E 024°12'520.5
2017-Sep-18 12:54N 37°34' E 024°06'820.4
2017-Sep-18 12:30N 37°36' E 023°56'1020.0
2017-Sep-18 12:00N 37°40' E 023°44'1019.5
2017-Sep-18 11:30N 37°48' E 023°38'917.3
2017-Sep-18 11:01N 37°57' E 023°38'0 0.1
2017-Sep-18 10:30N 37°57' E 023°38'0 0.0
2017-Sep-18 10:00N 37°57' E 023°38'0 0.0
2017-Sep-18 09:30N 37°57' E 023°38'0 0.0
2017-Sep-18 09:00N 37°57' E 023°38'0 0.0
2017-Sep-18 08:30N 37°57' E 023°38'0 0.0
2017-Sep-18 08:00N 37°57' E 023°38'0 0.0
2017-Sep-18 07:30N 37°57' E 023°38'0 0.0
2017-Sep-18 07:00N 37°57' E 023°38'0 0.0
2017-Sep-18 06:29N 37°57' E 023°38'0 0.0
2017-Sep-18 06:00N 37°57' E 023°38'0 0.0
2017-Sep-18 05:30N 37°57' E 023°38'0 0.0
2017-Sep-18 05:01N 37°57' E 023°38'0 0.0
2017-Sep-18 04:30N 37°57' E 023°38'0 0.0
2017-Sep-18 04:00N 37°57' E 023°38'0 0.0
2017-Sep-18 03:30N 37°57' E 023°38'0 0.0
2017-Sep-18 03:01N 37°57' E 023°38'0 0.0
2017-Sep-18 02:30N 37°57' E 023°38'0 0.0
2017-Sep-18 02:00N 37°57' E 023°38'0 0.0
2017-Sep-18 01:30N 37°57' E 023°38'0 0.0
2017-Sep-18 01:00N 37°57' E 023°38'0 1.0
2017-Sep-18 00:31N 37°56' E 023°37'917.7
2017-Sep-18 00:00N 37°48' E 023°41'1019.5
2017-Sep-17 23:30N 37°40' E 023°49'1020.2
2017-Sep-17 23:00N 37°36' E 024°01'2919.7
2017-Sep-17 21:31N 37°31' E 024°37'020.0
2017-Sep-17 21:30N 37°31' E 024°37'1020.1
2017-Sep-17 21:00N 37°32' E 024°50'1020.3
2017-Sep-17 20:30N 37°31' E 025°03'1020.4
2017-Sep-17 20:00N 37°31' E 025°16'1020.3
2017-Sep-17 19:30N 37°30' E 025°28'1020.1
2017-Sep-17 19:00N 37°28' E 025°41'1020.9
2017-Sep-17 18:30N 37°25' E 025°53'149 7.8
2017-Sep-16 23:25N 39°49' E 025°04'4 6.7
2017-Sep-16 22:53N 39°52' E 025°03'1513.4
2017-Sep-16 21:47N 40°05' E 024°53'920.6
2017-Sep-16 21:22N 40°12' E 024°47'820.8
2017-Sep-16 21:00N 40°19' E 024°43'1120.4
2017-Sep-16 20:29N 40°29' E 024°36'920.1
2017-Sep-16 20:01N 40°37' E 024°30'1020.2
2017-Sep-16 19:31N 40°47' E 024°27'919.0
2017-Sep-16 19:01N 40°56' E 024°24'0 0.4
2017-Sep-16 18:30N 40°56' E 024°25'0 0.0
2017-Sep-16 18:01N 40°56' E 024°25'0 0.0
2017-Sep-16 17:30N 40°56' E 024°25'0 0.0
2017-Sep-16 17:01N 40°56' E 024°25'0 0.2
2017-Sep-16 16:31N 40°56' E 024°25'918.4
2017-Sep-16 16:00N 40°47' E 024°27'1020.6
2017-Sep-16 15:30N 40°37' E 024°31'1121.0
2017-Sep-16 15:00N 40°28' E 024°37'1021.0
2017-Sep-16 14:31N 40°18' E 024°44'1020.4
2017-Sep-16 14:00N 40°10' E 024°50'1020.6
2017-Sep-16 13:30N 40°01' E 024°57'919.0
2017-Sep-16 13:01N 39°52' E 025°03'1 1.7
2017-Sep-16 12:28N 39°52' E 025°02'154 8.5
2017-Sep-15 18:27N 37°24' E 025°55'819.2
2017-Sep-15 18:00N 37°26' E 025°45'1020.3
2017-Sep-15 17:30N 37°29' E 025°33'1120.3
2017-Sep-15 16:59N 37°30' E 025°19'2 5.0
2017-Sep-15 16:31N 37°28' E 025°19'1019.9
2017-Sep-15 16:01N 37°27' E 025°06'815.0
2017-Sep-15 15:29N 37°26' E 024°57'2 3.3
2017-Sep-15 15:00N 37°28' E 024°57'917.3
2017-Sep-15 14:30N 37°31' E 024°47'3620.2
2017-Sep-15 12:44N 37°35' E 024°03'520.6
2017-Sep-15 12:30N 37°36' E 023°57'1020.5
2017-Sep-15 12:00N 37°40' E 023°45'1019.8
2017-Sep-15 11:31N 37°48' E 023°38'917.2
2017-Sep-15 11:00N 37°57' E 023°38'0 0.0
2017-Sep-15 10:30N 37°57' E 023°38'0 0.0
2017-Sep-15 10:00N 37°57' E 023°38'0 0.0
2017-Sep-15 09:30N 37°57' E 023°38'0 0.0
2017-Sep-15 09:00N 37°57' E 023°38'0 0.0
2017-Sep-15 08:30N 37°57' E 023°38'0 0.0
2017-Sep-15 08:00N 37°57' E 023°38'0 0.0
2017-Sep-15 07:30N 37°57' E 023°38'0 0.0
2017-Sep-15 07:00N 37°57' E 023°38'0 0.0
2017-Sep-15 06:31N 37°57' E 023°38'0 0.0
2017-Sep-15 06:00N 37°57' E 023°38'0 0.0
2017-Sep-15 05:30N 37°57' E 023°38'0 0.0
2017-Sep-15 05:00N 37°57' E 023°38'0 0.0
2017-Sep-15 04:30N 37°57' E 023°38'0 0.0
2017-Sep-15 04:00N 37°57' E 023°38'0 0.0
2017-Sep-15 03:30N 37°57' E 023°38'0 0.0
2017-Sep-15 03:00N 37°57' E 023°38'0 0.0
2017-Sep-15 02:30N 37°57' E 023°38'0 0.0
2017-Sep-15 02:00N 37°57' E 023°38'0 0.0
2017-Sep-15 01:30N 37°57' E 023°38'0 0.0
2017-Sep-15 01:00N 37°57' E 023°38'1 2.4
2017-Sep-15 00:31N 37°56' E 023°37'918.8
2017-Sep-15 00:01N 37°47' E 023°42'1019.0
2017-Sep-14 23:30N 37°40' E 023°50'1220.1
2017-Sep-14 22:56N 37°35' E 024°03'3319.6
2017-Sep-14 21:16N 37°31' E 024°44'520.2
2017-Sep-14 21:00N 37°32' E 024°51'1020.5
2017-Sep-14 20:30N 37°31' E 025°04'1020.5
2017-Sep-14 20:01N 37°31' E 025°16'1019.9
2017-Sep-14 19:30N 37°30' E 025°29'1019.7
2017-Sep-14 19:00N 37°28' E 025°41'1020.5
2017-Sep-14 18:30N 37°25' E 025°53'2 0.1
2017-Sep-14 03:28N 37°25' E 025°55'919.9
2017-Sep-14 03:00N 37°27' E 025°44'1020.7
2017-Sep-14 02:30N 37°30' E 025°32'1020.8
2017-Sep-14 02:00N 37°30' E 025°18'1020.2
2017-Sep-14 01:30N 37°31' E 025°06'1120.5
2017-Sep-14 00:58N 37°31' E 024°52'4420.4
2017-Sep-13 22:50N 37°36' E 023°57'720.8
2017-Sep-13 22:30N 37°38' E 023°49'1019.2
2017-Sep-13 22:00N 37°45' E 023°40'1020.3
2017-Sep-13 21:31N 37°54' E 023°37'2 4.6
2017-Sep-13 21:00N 37°57' E 023°38'0 0.0
2017-Sep-13 20:30N 37°57' E 023°38'611.2
2017-Sep-13 20:00N 37°51' E 023°39'1020.4
2017-Sep-13 19:30N 37°42' E 023°45'1020.1
2017-Sep-13 19:00N 37°38' E 023°57'3819.8
2017-Sep-13 17:06N 37°31' E 024°44'220.3
2017-Sep-13 17:00N 37°31' E 024°46'1220.7
2017-Sep-13 16:26N 37°31' E 025°01'920.6
2017-Sep-13 16:00N 37°31' E 025°12'1020.5
2017-Sep-13 15:30N 37°30' E 025°25'1019.8
2017-Sep-13 15:00N 37°29' E 025°37'1020.4
2017-Sep-13 14:30N 37°26' E 025°50'145 8.6
2017-Sep-12 21:36N 39°47' E 025°07'219.8
2017-Sep-12 21:29N 39°48' E 025°04'4 8.1
2017-Sep-12 20:59N 39°52' E 025°03'2717.1
2017-Sep-12 19:25N 40°16' E 024°46'819.1
2017-Sep-12 19:00N 40°23' E 024°41'1019.6
2017-Sep-12 18:30N 40°31' E 024°35'1019.9
2017-Sep-12 18:00N 40°40' E 024°29'1019.8
2017-Sep-12 17:30N 40°50' E 024°26'611.8
2017-Sep-12 16:59N 40°56' E 024°25'0 0.0
2017-Sep-12 16:30N 40°56' E 024°25'0 0.0
2017-Sep-12 16:00N 40°56' E 024°25'3 5.8
2017-Sep-12 15:30N 40°53' E 024°25'1020.4
2017-Sep-12 15:00N 40°43' E 024°28'1020.0
2017-Sep-12 14:30N 40°34' E 024°33'1020.5
2017-Sep-12 14:00N 40°25' E 024°39'1021.0
2017-Sep-12 13:30N 40°16' E 024°46'1021.0
2017-Sep-12 13:00N 40°06' E 024°53'1020.5
2017-Sep-12 12:30N 39°57' E 024°59'6 8.6
2017-Sep-12 11:49N 39°52' E 025°03'  
Track history (hours):
 
Tides and Currents Weather Stations Pressure Air Temp Water Temp Dewpoint Dewpoint Depression Visibility Wind Speed Wind Dir Waves Ship Positions

Ros

Last reported at 2017-Sep-22 02:00 UTC. Time now 2017-Sep-23 02:24 UTC.
Position N 37°57' E 023°38'.

Length 182 m; draft 11.9 m.

Type: Tanker. MMSI: 231741000.

Date/timePositionNaut miles runAvg speedWind from/ knotsBaromVisibWave heightAir tempDewpointWater temp
2017-Sep-22 02:00N 37°57' E 023°38'0 0.0
2017-Sep-22 01:30N 37°57' E 023°38'0 0.0
2017-Sep-22 01:00N 37°57' E 023°38'2 4.7
2017-Sep-22 00:30N 37°54' E 023°38'919.0
2017-Sep-22 00:00N 37°46' E 023°43'918.7
2017-Sep-21 23:30N 37°39' E 023°52'4219.1
2017-Sep-21 21:18N 37°31' E 024°44'620.0
2017-Sep-21 21:00N 37°31' E 024°51'1020.0
2017-Sep-21 20:30N 37°31' E 025°04'1020.4
2017-Sep-21 20:00N 37°31' E 025°17'1020.1
2017-Sep-21 19:30N 37°30' E 025°29'1020.4
2017-Sep-21 19:00N 37°28' E 025°42'1020.4
2017-Sep-21 18:30N 37°25' E 025°54'1 0.1
2017-Sep-21 03:50N 37°24' E 025°55'719.7
2017-Sep-21 03:30N 37°26' E 025°47'1019.9
2017-Sep-21 03:00N 37°29' E 025°35'1020.6
2017-Sep-21 02:30N 37°31' E 025°22'1020.1
2017-Sep-21 02:00N 37°31' E 025°10'1020.8
2017-Sep-21 01:30N 37°31' E 024°57'1020.3
2017-Sep-21 01:00N 37°32' E 024°44'3720.5
2017-Sep-20 23:14N 37°35' E 023°58'520.8
2017-Sep-20 23:00N 37°37' E 023°52'1019.8
2017-Sep-20 22:30N 37°42' E 023°42'1020.5
2017-Sep-20 22:00N 37°51' E 023°37'510.2
2017-Sep-20 21:30N 37°57' E 023°38'0 0.0
2017-Sep-20 21:00N 37°57' E 023°38'4 7.8
2017-Sep-20 20:31N 37°53' E 023°38'1019.7
2017-Sep-20 20:00N 37°44' E 023°44'1018.9
2017-Sep-20 19:30N 37°38' E 023°54'1619.1
2017-Sep-20 18:39N 37°32' E 024°13'2519.1
2017-Sep-20 17:21N 37°31' E 024°44'819.7
2017-Sep-20 16:58N 37°32' E 024°53'919.7
2017-Sep-20 16:30N 37°31' E 025°05'1020.1
2017-Sep-20 16:00N 37°31' E 025°17'1020.1
2017-Sep-20 15:30N 37°30' E 025°30'1420.5
2017-Sep-20 14:49N 37°26' E 025°47'146 8.4
2017-Sep-19 21:24N 39°48' E 025°05'4 9.6
2017-Sep-19 20:56N 39°52' E 025°03'5 9.7
2017-Sep-19 20:23N 39°56' E 024°59'1020.9
2017-Sep-19 19:55N 40°05' E 024°53'920.9
2017-Sep-19 19:29N 40°13' E 024°47'1020.8
2017-Sep-19 19:00N 40°22' E 024°41'1020.7
2017-Sep-19 18:30N 40°31' E 024°34'1020.1
2017-Sep-19 18:00N 40°40' E 024°29'1020.2
2017-Sep-19 17:30N 40°50' E 024°26'612.5
2017-Sep-19 17:00N 40°56' E 024°25'0 0.0
2017-Sep-19 16:30N 40°56' E 024°25'0 0.0
2017-Sep-19 16:00N 40°56' E 024°25'1 1.4
2017-Sep-19 15:31N 40°55' E 024°24'1020.3
2017-Sep-19 15:01N 40°45' E 024°27'1020.7
2017-Sep-19 14:30N 40°36' E 024°31'1020.5
2017-Sep-19 14:00N 40°27' E 024°38'1020.1
2017-Sep-19 13:31N 40°18' E 024°44'1020.0
2017-Sep-19 13:00N 40°09' E 024°51'1019.8
2017-Sep-19 12:30N 40°00' E 024°57'918.7
2017-Sep-19 12:00N 39°52' E 025°03'3 5.8
2017-Sep-19 11:31N 39°50' E 025°02'3620.7
2017-Sep-19 09:47N 39°34' E 025°44'620.3
2017-Sep-19 09:30N 39°32' E 025°51'1120.4
2017-Sep-19 08:58N 39°27' E 026°04'124 8.6
2017-Sep-18 18:33N 37°24' E 025°55'119.4
2017-Sep-18 18:30N 37°24' E 025°54'1019.8
2017-Sep-18 18:00N 37°27' E 025°42'1020.2
2017-Sep-18 17:30N 37°30' E 025°30'918.9
2017-Sep-18 17:00N 37°29' E 025°18'3 6.2
2017-Sep-18 16:30N 37°27' E 025°15'1020.5
2017-Sep-18 16:00N 37°27' E 025°02'4 8.7
2017-Sep-18 15:30N 37°26' E 024°57'2 4.4
2017-Sep-18 15:00N 37°28' E 024°58'918.1
2017-Sep-18 14:30N 37°31' E 024°47'2820.3
2017-Sep-18 13:09N 37°32' E 024°12'520.5
2017-Sep-18 12:54N 37°34' E 024°06'820.4
2017-Sep-18 12:30N 37°36' E 023°56'1020.0
2017-Sep-18 12:00N 37°40' E 023°44'1019.5
2017-Sep-18 11:30N 37°48' E 023°38'917.3
2017-Sep-18 11:01N 37°57' E 023°38'0 0.1
2017-Sep-18 10:30N 37°57' E 023°38'0 0.0
2017-Sep-18 10:00N 37°57' E 023°38'0 0.0
2017-Sep-18 09:30N 37°57' E 023°38'0 0.0
2017-Sep-18 09:00N 37°57' E 023°38'0 0.0
2017-Sep-18 08:30N 37°57' E 023°38'0 0.0
2017-Sep-18 08:00N 37°57' E 023°38'0 0.0
2017-Sep-18 07:30N 37°57' E 023°38'0 0.0
2017-Sep-18 07:00N 37°57' E 023°38'0 0.0
2017-Sep-18 06:29N 37°57' E 023°38'0 0.0
2017-Sep-18 06:00N 37°57' E 023°38'0 0.0
2017-Sep-18 05:30N 37°57' E 023°38'0 0.0
2017-Sep-18 05:01N 37°57' E 023°38'0 0.0
2017-Sep-18 04:30N 37°57' E 023°38'0 0.0
2017-Sep-18 04:00N 37°57' E 023°38'0 0.0
2017-Sep-18 03:30N 37°57' E 023°38'0 0.0
2017-Sep-18 03:01N 37°57' E 023°38'0 0.0
2017-Sep-18 02:30N 37°57' E 023°38'0 0.0
2017-Sep-18 02:00N 37°57' E 023°38'0 0.0
2017-Sep-18 01:30N 37°57' E 023°38'0 0.0
2017-Sep-18 01:00N 37°57' E 023°38'0 1.0
2017-Sep-18 00:31N 37°56' E 023°37'917.7
2017-Sep-18 00:00N 37°48' E 023°41'1019.5
2017-Sep-17 23:30N 37°40' E 023°49'1020.2
2017-Sep-17 23:00N 37°36' E 024°01'2919.7
2017-Sep-17 21:31N 37°31' E 024°37'020.0
2017-Sep-17 21:30N 37°31' E 024°37'1020.1
2017-Sep-17 21:00N 37°32' E 024°50'1020.3
2017-Sep-17 20:30N 37°31' E 025°03'1020.4
2017-Sep-17 20:00N 37°31' E 025°16'1020.3
2017-Sep-17 19:30N 37°30' E 025°28'1020.1
2017-Sep-17 19:00N 37°28' E 025°41'1020.9
2017-Sep-17 18:30N 37°25' E 025°53'149 7.8
2017-Sep-16 23:25N 39°49' E 025°04'4 6.7
2017-Sep-16 22:53N 39°52' E 025°03'1513.4
2017-Sep-16 21:47N 40°05' E 024°53'920.6
2017-Sep-16 21:22N 40°12' E 024°47'820.8
2017-Sep-16 21:00N 40°19' E 024°43'1120.4
2017-Sep-16 20:29N 40°29' E 024°36'920.1
2017-Sep-16 20:01N 40°37' E 024°30'1020.2
2017-Sep-16 19:31N 40°47' E 024°27'919.0
2017-Sep-16 19:01N 40°56' E 024°24'0 0.4
2017-Sep-16 18:30N 40°56' E 024°25'0 0.0
2017-Sep-16 18:01N 40°56' E 024°25'0 0.0
2017-Sep-16 17:30N 40°56' E 024°25'0 0.0
2017-Sep-16 17:01N 40°56' E 024°25'0 0.2
2017-Sep-16 16:31N 40°56' E 024°25'918.4
2017-Sep-16 16:00N 40°47' E 024°27'1020.6
2017-Sep-16 15:30N 40°37' E 024°31'1121.0
2017-Sep-16 15:00N 40°28' E 024°37'1021.0
2017-Sep-16 14:31N 40°18' E 024°44'1020.4
2017-Sep-16 14:00N 40°10' E 024°50'1020.6
2017-Sep-16 13:30N 40°01' E 024°57'919.0
2017-Sep-16 13:01N 39°52' E 025°03'1 1.7
2017-Sep-16 12:28N 39°52' E 025°02'154 8.5
2017-Sep-15 18:27N 37°24' E 025°55'819.2
2017-Sep-15 18:00N 37°26' E 025°45'1020.3
2017-Sep-15 17:30N 37°29' E 025°33'1120.3
2017-Sep-15 16:59N 37°30' E 025°19'2 5.0
2017-Sep-15 16:31N 37°28' E 025°19'1019.9
2017-Sep-15 16:01N 37°27' E 025°06'815.0
2017-Sep-15 15:29N 37°26' E 024°57'2 3.3
2017-Sep-15 15:00N 37°28' E 024°57'917.3
2017-Sep-15 14:30N 37°31' E 024°47'3620.2
2017-Sep-15 12:44N 37°35' E 024°03'520.6
2017-Sep-15 12:30N 37°36' E 023°57'1020.5
2017-Sep-15 12:00N 37°40' E 023°45'1019.8
2017-Sep-15 11:31N 37°48' E 023°38'917.2
2017-Sep-15 11:00N 37°57' E 023°38'0 0.0
2017-Sep-15 10:30N 37°57' E 023°38'0 0.0
2017-Sep-15 10:00N 37°57' E 023°38'0 0.0
2017-Sep-15 09:30N 37°57' E 023°38'0 0.0
2017-Sep-15 09:00N 37°57' E 023°38'0 0.0
2017-Sep-15 08:30N 37°57' E 023°38'0 0.0
2017-Sep-15 08:00N 37°57' E 023°38'0 0.0
2017-Sep-15 07:30N 37°57' E 023°38'0 0.0
2017-Sep-15 07:00N 37°57' E 023°38'0 0.0
2017-Sep-15 06:31N 37°57' E 023°38'0 0.0
2017-Sep-15 06:00N 37°57' E 023°38'0 0.0
2017-Sep-15 05:30N 37°57' E 023°38'0 0.0
2017-Sep-15 05:00N 37°57' E 023°38'0 0.0
2017-Sep-15 04:30N 37°57' E 023°38'0 0.0
2017-Sep-15 04:00N 37°57' E 023°38'0 0.0
2017-Sep-15 03:30N 37°57' E 023°38'0 0.0
2017-Sep-15 03:00N 37°57' E 023°38'0 0.0
2017-Sep-15 02:30N 37°57' E 023°38'0 0.0
2017-Sep-15 02:00N 37°57' E 023°38'0 0.0
2017-Sep-15 01:30N 37°57' E 023°38'0 0.0
2017-Sep-15 01:00N 37°57' E 023°38'1 2.4
2017-Sep-15 00:31N 37°56' E 023°37'918.8
2017-Sep-15 00:01N 37°47' E 023°42'1019.0
2017-Sep-14 23:30N 37°40' E 023°50'1220.1
2017-Sep-14 22:56N 37°35' E 024°03'3319.6
2017-Sep-14 21:16N 37°31' E 024°44'520.2
2017-Sep-14 21:00N 37°32' E 024°51'1020.5
2017-Sep-14 20:30N 37°31' E 025°04'1020.5
2017-Sep-14 20:01N 37°31' E 025°16'1019.9
2017-Sep-14 19:30N 37°30' E 025°29'1019.7
2017-Sep-14 19:00N 37°28' E 025°41'1020.5
2017-Sep-14 18:30N 37°25' E 025°53'2 0.1
2017-Sep-14 03:28N 37°25' E 025°55'919.9
2017-Sep-14 03:00N 37°27' E 025°44'1020.7
2017-Sep-14 02:30N 37°30' E 025°32'1020.8
2017-Sep-14 02:00N 37°30' E 025°18'1020.2
2017-Sep-14 01:30N 37°31' E 025°06'1120.5
2017-Sep-14 00:58N 37°31' E 024°52'4420.4
2017-Sep-13 22:50N 37°36' E 023°57'720.8
2017-Sep-13 22:30N 37°38' E 023°49'1019.2
2017-Sep-13 22:00N 37°45' E 023°40'1020.3
2017-Sep-13 21:31N 37°54' E 023°37'2 4.6
2017-Sep-13 21:00N 37°57' E 023°38'0 0.0
2017-Sep-13 20:30N 37°57' E 023°38'611.2
2017-Sep-13 20:00N 37°51' E 023°39'1020.4
2017-Sep-13 19:30N 37°42' E 023°45'1020.1
2017-Sep-13 19:00N 37°38' E 023°57'3819.8
2017-Sep-13 17:06N 37°31' E 024°44'220.3
2017-Sep-13 17:00N 37°31' E 024°46'1220.7
2017-Sep-13 16:26N 37°31' E 025°01'920.6
2017-Sep-13 16:00N 37°31' E 025°12'1020.5
2017-Sep-13 15:30N 37°30' E 025°25'1019.8
2017-Sep-13 15:00N 37°29' E 025°37'1020.4
2017-Sep-13 14:30N 37°26' E 025°50'145 8.6
2017-Sep-12 21:36N 39°47' E 025°07'219.8
2017-Sep-12 21:29N 39°48' E 025°04'4 8.1
2017-Sep-12 20:59N 39°52' E 025°03'2717.1
2017-Sep-12 19:25N 40°16' E 024°46'819.1
2017-Sep-12 19:00N 40°23' E 024°41'1019.6
2017-Sep-12 18:30N 40°31' E 024°35'1019.9
2017-Sep-12 18:00N 40°40' E 024°29'1019.8
2017-Sep-12 17:30N 40°50' E 024°26'611.8
2017-Sep-12 16:59N 40°56' E 024°25'0 0.0
2017-Sep-12 16:30N 40°56' E 024°25'0 0.0
2017-Sep-12 16:00N 40°56' E 024°25'3 5.8
2017-Sep-12 15:30N 40°53' E 024°25'1020.4
2017-Sep-12 15:00N 40°43' E 024°28'1020.0
2017-Sep-12 14:30N 40°34' E 024°33'1020.5
2017-Sep-12 14:00N 40°25' E 024°39'1021.0
2017-Sep-12 13:30N 40°16' E 024°46'1021.0
2017-Sep-12 13:00N 40°06' E 024°53'1020.5
2017-Sep-12 12:30N 39°57' E 024°59'6 8.6
2017-Sep-12 11:49N 39°52' E 025°03'  

Dump ship's entire track history